Time;durP1;ratioP1;P1;durP2;ratioP2;P2;SDS_P1;SDS_P2;PMS_P1;PMS_P2;Temp;Humidity;BMP_temperature;BMP_pressure;BME280_temperature;BME280_humidity;BME280_pressure;Samples;Min_cycle;Max_cycle;Signal;HPM_P1;HPM_P2
2022/10/02 00:01:46;;;;;;;5.83;3.07;;;11.30;99.90;;;;;;5046628;28;20697;-74
2022/10/02 00:04:29;;;;;;;11.13;2.90;;;11.30;99.90;;;;;;5042665;28;20192;-73
2022/10/02 00:06:59;;;;;;;12.97;3.40;;;11.30;99.90;;;;;;5041124;28;20176;-73
2022/10/02 00:09:34;;;;;;;13.50;2.90;;;11.40;99.90;;;;;;5031617;28;20580;-73
2022/10/02 00:12:00;;;;;;;10.43;2.53;;;11.40;99.90;;;;;;5046437;28;20595;-73
2022/10/02 00:14:32;;;;;;;12.70;3.27;;;11.40;99.90;;;;;;5038816;28;20211;-73
2022/10/02 00:17:00;;;;;;;7.37;2.73;;;11.40;99.90;;;;;;5047132;28;20220;-73
2022/10/02 00:19:25;;;;;;;14.10;4.30;;;11.40;99.90;;;;;;5046513;28;20215;-73
2022/10/02 00:22:16;;;;;;;10.50;3.73;;;11.50;99.90;;;;;;5045354;28;20191;-73
2022/10/02 00:24:58;;;;;;;10.17;2.73;;;11.50;99.90;;;;;;5045004;28;20257;-72
2022/10/02 00:27:44;;;;;;;11.73;4.03;;;11.50;99.90;;;;;;5043091;28;20353;-73
2022/10/02 00:30:13;;;;;;;6.33;2.63;;;11.40;99.90;;;;;;5027746;28;20209;-74
2022/10/02 00:32:48;;;;;;;8.40;2.80;;;11.50;99.90;;;;;;5042808;28;20214;-73
2022/10/02 00:35:30;;;;;;;16.40;3.23;;;11.40;99.90;;;;;;5040994;28;20208;-73
2022/10/02 00:38:19;;;;;;;9.37;2.93;;;11.50;99.90;;;;;;5025010;28;20208;-73
2022/10/02 00:41:03;;;;;;;8.83;2.70;;;11.50;99.90;;;;;;5040602;28;20228;-73
2022/10/02 00:43:47;;;;;;;10.60;3.20;;;11.50;99.90;;;;;;5044277;28;20215;-72
2022/10/02 00:46:31;;;;;;;8.93;3.23;;;11.50;99.90;;;;;;5044216;28;20175;-73
2022/10/02 00:49:08;;;;;;;8.03;2.93;;;11.50;99.90;;;;;;5004582;28;20211;-72
2022/10/02 00:51:52;;;;;;;7.50;3.10;;;11.50;99.90;;;;;;5049298;28;20218;-74
2022/10/02 00:54:30;;;;;;;11.03;2.83;;;11.40;99.90;;;;;;5040579;28;20748;-74
2022/10/02 00:57:22;;;;;;;9.80;3.43;;;11.50;99.90;;;;;;5042996;28;20204;-73
2022/10/02 01:00:07;;;;;;;10.93;3.27;;;11.50;99.90;;;;;;5041415;28;20211;-72
2022/10/02 01:02:35;;;;;;;11.23;2.30;;;11.50;99.90;;;;;;5042651;28;20589;-73
2022/10/02 01:05:07;;;;;;;7.07;2.23;;;11.40;99.90;;;;;;5037198;28;20702;-73
2022/10/02 01:07:37;;;;;;;9.67;2.87;;;11.40;99.90;;;;;;5049624;28;20720;-73
2022/10/02 01:10:03;;;;;;;10.60;3.30;;;11.40;99.90;;;;;;5045339;28;20184;-73
2022/10/02 01:12:29;;;;;;;8.40;3.17;;;11.30;99.90;;;;;;5045196;28;20294;-71
2022/10/02 01:14:54;;;;;;;8.97;2.80;;;11.30;99.90;;;;;;5042787;28;20207;-73
2022/10/02 01:17:32;;;;;;;7.80;2.50;;;11.30;99.90;;;;;;5048019;28;20603;-73
2022/10/02 01:20:00;;;;;;;8.97;2.80;;;11.30;99.90;;;;;;5043355;28;20706;-73
2022/10/02 01:22:31;;;;;;;12.27;2.50;;;11.20;99.90;;;;;;5028260;28;20298;-74
2022/10/02 01:24:59;;;;;;;9.23;3.10;;;11.20;99.90;;;;;;5024730;28;20297;-74
2022/10/02 01:27:26;;;;;;;7.93;2.63;;;11.20;99.90;;;;;;5047044;28;20211;-73
2022/10/02 01:29:58;;;;;;;11.90;3.00;;;11.20;99.90;;;;;;5041682;28;20213;-71
2022/10/02 01:32:25;;;;;;;13.30;3.17;;;11.20;99.90;;;;;;5038678;28;20774;-73
2022/10/02 01:34:52;;;;;;;10.23;3.83;;;11.20;99.90;;;;;;5023108;28;20582;-73
2022/10/02 01:37:21;;;;;;;14.80;2.90;;;11.20;99.90;;;;;;5041272;28;20176;-73
2022/10/02 01:39:47;;;;;;;12.30;2.93;;;11.10;99.90;;;;;;5040676;28;20552;-75
2022/10/02 01:42:13;;;;;;;12.23;3.40;;;11.10;99.90;;;;;;5043946;28;20217;-73
2022/10/02 01:44:39;;;;;;;15.70;3.50;;;11.10;99.90;;;;;;5046358;28;20711;-72
2022/10/02 01:47:28;;;;;;;8.40;2.67;;;11.10;99.90;;;;;;5044908;28;20227;-75
2022/10/02 01:50:18;;;;;;;13.93;3.13;;;11.10;99.90;;;;;;5009676;28;20223;-72
2022/10/02 01:53:09;;;;;;;15.60;3.33;;;11.10;99.90;;;;;;5022201;28;20302;-73
2022/10/02 01:56:09;;;;;;;13.43;3.87;;;11.10;99.90;;;;;;5021205;28;20203;-73
2022/10/02 01:58:48;;;;;;;12.30;3.27;;;11.00;99.90;;;;;;5041450;28;20212;-72
2022/10/02 02:01:24;;;;;;;8.23;2.63;;;11.00;99.90;;;;;;5045419;28;20207;-75
2022/10/02 02:04:05;;;;;;;8.20;3.07;;;11.00;99.90;;;;;;5019876;28;20219;-74
2022/10/02 02:06:45;;;;;;;13.17;3.43;;;11.00;99.90;;;;;;5039023;28;20204;-73
2022/10/02 02:09:20;;;;;;;13.80;2.97;;;11.00;99.90;;;;;;5046159;28;20254;-74
2022/10/02 02:12:00;;;;;;;11.50;3.10;;;11.00;99.90;;;;;;5043896;28;20199;-74
2022/10/02 02:14:34;;;;;;;8.20;2.70;;;11.00;99.90;;;;;;5041032;28;20207;-74
2022/10/02 02:17:25;;;;;;;7.27;3.00;;;11.00;99.90;;;;;;5032331;28;20231;-72
2022/10/02 02:20:14;;;;;;;13.57;3.63;;;11.00;99.90;;;;;;5044106;28;20272;-74
2022/10/02 02:22:44;;;;;;;12.37;3.00;;;11.00;99.90;;;;;;5026999;28;20214;-74
2022/10/02 02:25:19;;;;;;;12.47;3.03;;;11.00;99.90;;;;;;5047062;28;20179;-74
2022/10/02 02:27:51;;;;;;;13.30;3.33;;;11.00;99.90;;;;;;5044075;28;20744;-73
2022/10/02 02:30:18;;;;;;;9.23;3.30;;;11.00;99.90;;;;;;5046401;28;20262;-73
2022/10/02 02:32:54;;;;;;;16.50;3.50;;;11.00;99.90;;;;;;5045149;28;20219;-74
2022/10/02 02:35:26;;;;;;;15.43;4.00;;;10.90;99.90;;;;;;5026314;28;20286;-73
2022/10/02 02:37:56;;;;;;;10.50;3.50;;;11.00;99.90;;;;;;5045674;28;20211;-73
2022/10/02 02:40:29;;;;;;;14.47;3.43;;;11.00;99.90;;;;;;5026443;28;20298;-73
2022/10/02 02:43:13;;;;;;;12.67;3.40;;;11.00;99.90;;;;;;5048059;28;20572;-72
2022/10/02 02:45:49;;;;;;;10.60;2.23;;;11.00;99.90;;;;;;5018091;28;20598;-73
2022/10/02 02:48:25;;;;;;;14.73;3.43;;;10.90;99.90;;;;;;5042389;28;20208;-74
2022/10/02 02:51:28;;;;;;;13.17;3.40;;;10.90;99.90;;;;;;5011631;28;20219;-73
2022/10/02 02:54:29;;;;;;;10.90;3.43;;;11.00;99.90;;;;;;5038506;28;20230;-74
2022/10/02 02:56:57;;;;;;;14.43;2.90;;;10.90;99.90;;;;;;5027861;28;20212;-71
2022/10/02 02:59:26;;;;;;;15.87;3.60;;;10.90;99.90;;;;;;5040197;28;20223;-73
2022/10/02 03:01:52;;;;;;;15.03;3.77;;;10.90;99.90;;;;;;5041632;28;20231;-72
2022/10/02 03:04:18;;;;;;;12.07;2.93;;;10.90;99.90;;;;;;5042234;28;20719;-73
2022/10/02 03:06:45;;;;;;;14.47;3.27;;;10.90;99.90;;;;;;5041402;28;20180;-73
2022/10/02 03:09:15;;;;;;;10.13;2.83;;;10.90;99.90;;;;;;5039643;28;20208;-73
2022/10/02 03:11:45;;;;;;;9.50;2.93;;;10.90;99.90;;;;;;5024839;28;20291;-73
2022/10/02 03:14:35;;;;;;;8.87;2.90;;;10.90;99.90;;;;;;5041327;28;20643;-73
2022/10/02 03:17:19;;;;;;;13.43;3.20;;;10.90;99.90;;;;;;5036150;28;20212;-73
2022/10/02 03:19:51;;;;;;;11.90;2.97;;;10.90;99.90;;;;;;5040568;28;20219;-73
2022/10/02 03:22:35;;;;;;;8.33;3.07;;;10.90;99.90;;;;;;5043665;28;20176;-72
2022/10/02 03:25:30;;;;;;;14.57;4.03;;;10.90;99.90;;;;;;5037192;28;20214;-73
2022/10/02 03:28:30;;;;;;;13.17;3.30;;;10.90;99.90;;;;;;5039067;28;20207;-73
2022/10/02 03:30:57;;;;;;;11.73;3.57;;;10.90;99.90;;;;;;5041953;28;20219;-74
2022/10/02 03:33:24;;;;;;;15.30;3.50;;;10.90;99.90;;;;;;5021809;28;20587;-72
2022/10/02 03:35:50;;;;;;;17.03;3.33;;;10.90;99.90;;;;;;5042619;28;20261;-73
2022/10/02 03:38:18;;;;;;;15.43;3.50;;;10.90;99.90;;;;;;5028184;28;20203;-72
2022/10/02 03:40:43;;;;;;;17.63;3.70;;;10.90;99.90;;;;;;5022461;28;20264;-73
2022/10/02 03:43:20;;;;;;;9.20;2.83;;;10.90;99.90;;;;;;5039034;28;20224;-73
2022/10/02 03:45:46;;;;;;;11.43;3.83;;;10.90;99.90;;;;;;5033666;28;20279;-73
2022/10/02 03:48:11;;;;;;;8.80;3.30;;;10.90;99.90;;;;;;5041000;28;20299;-74
2022/10/02 03:50:37;;;;;;;8.33;2.80;;;10.90;99.90;;;;;;5038877;28;20207;-73
2022/10/02 03:53:13;;;;;;;10.83;2.67;;;10.90;99.90;;;;;;5039572;28;20224;-73
2022/10/02 03:55:44;;;;;;;10.17;3.60;;;10.90;99.90;;;;;;5036783;28;20211;-74
2022/10/02 03:58:13;;;;;;;14.43;3.33;;;10.90;99.90;;;;;;5038831;28;20226;-71
2022/10/02 04:00:48;;;;;;;11.50;2.77;;;10.90;99.90;;;;;;5042414;28;20325;-73
2022/10/02 04:03:22;;;;;;;11.67;2.93;;;10.90;99.90;;;;;;5039387;28;20915;-73
2022/10/02 04:05:52;;;;;;;7.47;2.80;;;10.90;99.90;;;;;;5039569;28;20318;-73
2022/10/02 04:08:24;;;;;;;12.27;2.90;;;11.00;99.90;;;;;;5017384;28;20211;-73
2022/10/02 04:11:29;;;;;;;11.33;3.30;;;11.00;99.90;;;;;;5040597;28;20685;-73
2022/10/02 04:14:17;;;;;;;14.47;2.80;;;11.00;99.90;;;;;;5040355;28;20228;-72
2022/10/02 04:16:49;;;;;;;11.43;2.53;;;11.00;99.90;;;;;;5038371;28;20576;-72
2022/10/02 04:19:48;;;;;;;9.83;2.70;;;11.00;99.90;;;;;;5038694;28;20184;-73
2022/10/02 04:22:20;;;;;;;9.57;2.90;;;11.00;99.90;;;;;;5042785;28;20183;-73
2022/10/02 04:24:52;;;;;;;7.80;2.90;;;11.00;99.90;;;;;;5039644;28;20202;-74
2022/10/02 04:27:25;;;;;;;7.83;2.40;;;11.00;99.90;;;;;;5036560;28;20757;-73
2022/10/02 04:30:08;;;;;;;10.17;3.30;;;11.00;99.90;;;;;;5038172;28;20209;-73
2022/10/02 04:32:35;;;;;;;11.20;2.97;;;11.10;99.90;;;;;;5036852;28;20235;-71
2022/10/02 04:35:12;;;;;;;7.33;2.43;;;11.10;99.90;;;;;;5039389;28;20615;-73
2022/10/02 04:37:59;;;;;;;9.37;2.13;;;11.10;99.90;;;;;;5018765;28;20238;-73
2022/10/02 04:40:49;;;;;;;11.77;3.10;;;11.20;99.90;;;;;;5023538;28;20713;-73
2022/10/02 04:43:25;;;;;;;9.07;3.13;;;11.20;99.90;;;;;;5038324;28;20196;-73
2022/10/02 04:45:57;;;;;;;9.80;2.53;;;11.30;99.90;;;;;;5034138;28;20172;-73
2022/10/02 04:48:45;;;;;;;12.27;2.57;;;11.30;99.90;;;;;;5005997;28;20726;-73
2022/10/02 04:51:48;;;;;;;11.40;2.67;;;11.30;99.90;;;;;;5040133;28;20582;-73
2022/10/02 04:54:30;;;;;;;10.83;2.63;;;11.40;99.90;;;;;;5038448;28;20581;-74
2022/10/02 04:57:06;;;;;;;11.77;3.07;;;11.40;99.90;;;;;;5037867;28;20291;-73
2022/10/02 05:00:00;;;;;;;14.20;2.87;;;11.40;99.90;;;;;;5037923;28;20208;-72
2022/10/02 05:02:39;;;;;;;10.83;2.30;;;11.40;99.90;;;;;;5021728;28;20682;-73
2022/10/02 05:05:26;;;;;;;12.77;3.23;;;11.50;99.90;;;;;;5020849;28;20233;-73
2022/10/02 05:08:13;;;;;;;8.33;2.10;;;11.50;99.90;;;;;;5038274;28;20211;-73
2022/10/02 05:11:08;;;;;;;9.70;2.90;;;11.40;99.90;;;;;;5046184;28;20208;-74
2022/10/02 05:14:09;;;;;;;10.03;3.10;;;11.40;99.90;;;;;;5042249;28;20219;-73
2022/10/02 05:19:22;;;;;;;8.23;2.73;;;11.40;99.90;;;;;;5004184;28;20220;-72
2022/10/02 05:22:13;;;;;;;8.70;2.40;;;11.40;99.90;;;;;;5002293;28;20256;-72
2022/10/02 05:24:48;;;;;;;8.27;2.20;;;11.40;99.90;;;;;;5005152;28;20635;-72
2022/10/02 05:27:28;;;;;;;13.47;2.70;;;11.40;99.90;;;;;;5005510;28;20637;-75
2022/10/02 05:30:03;;;;;;;7.47;2.40;;;11.50;99.90;;;;;;5004563;28;20684;-74
2022/10/02 05:32:35;;;;;;;7.33;2.40;;;11.40;99.90;;;;;;5004890;28;20686;-70
2022/10/02 05:35:30;;;;;;;8.83;2.57;;;11.50;99.90;;;;;;5006001;28;20221;-74
2022/10/02 05:38:14;;;;;;;8.20;2.60;;;11.40;99.90;;;;;;4988480;28;20264;-73
2022/10/02 05:40:46;;;;;;;12.77;3.13;;;11.50;99.90;;;;;;4998823;28;20300;-74
2022/10/02 05:43:31;;;;;;;9.17;2.43;;;11.50;99.90;;;;;;4990946;28;20189;-75
2022/10/02 05:46:10;;;;;;;8.00;2.30;;;11.50;99.90;;;;;;5005564;28;20185;-73
2022/10/02 05:48:51;;;;;;;6.13;2.27;;;11.60;99.90;;;;;;5007403;28;20295;-73
2022/10/02 05:51:35;;;;;;;6.13;2.07;;;11.70;99.90;;;;;;5008431;28;20270;-74
2022/10/02 05:54:12;;;;;;;9.07;2.60;;;11.80;99.90;;;;;;5007899;28;20216;-73
2022/10/02 05:56:53;;;;;;;11.23;2.57;;;12.30;99.90;;;;;;4988658;28;20936;-73
2022/10/02 05:59:53;;;;;;;13.10;2.50;;;13.00;99.90;;;;;;5008990;28;20295;-73
2022/10/02 06:02:43;;;;;;;7.40;2.78;;;13.90;99.90;;;;;;4971934;28;20205;-73
2022/10/02 06:05:44;;;;;;;11.18;2.42;;;14.30;99.90;;;;;;5008279;28;20235;-74
2022/10/02 06:08:14;;;;;;;11.10;2.38;;;13.90;99.90;;;;;;5005875;28;20723;-73
2022/10/02 06:11:14;;;;;;;10.35;2.42;;;13.30;99.90;;;;;;5003206;28;20251;-73
2022/10/02 06:13:45;;;;;;;7.93;2.28;;;12.80;99.90;;;;;;4956627;28;20220;-74
2022/10/02 06:16:17;;;;;;;7.73;2.00;;;12.50;99.90;;;;;;5007807;28;20177;-74
2022/10/02 06:18:48;;;;;;;9.33;2.40;;;12.30;99.90;;;;;;4988689;28;20209;-75
2022/10/02 06:21:56;;;;;;;10.03;3.00;;;12.20;99.90;;;;;;5007439;28;20227;-73
2022/10/02 06:24:29;;;;;;;7.03;2.77;;;12.20;99.90;;;;;;5001652;28;20220;-77
2022/10/02 06:27:07;;;;;;;7.73;3.17;;;12.20;99.90;;;;;;5006820;28;20699;-74
2022/10/02 06:29:40;;;;;;;11.20;2.97;;;12.20;99.90;;;;;;5007801;28;20209;-73
2022/10/02 06:32:29;;;;;;;10.57;3.47;;;12.20;99.90;;;;;;5007962;28;20220;-73
2022/10/02 06:34:55;;;;;;;10.00;3.17;;;12.30;99.90;;;;;;5005357;28;20213;-75
2022/10/02 06:37:50;;;;;;;11.53;4.37;;;12.30;99.90;;;;;;5008494;28;20299;-74
2022/10/02 06:40:44;;;;;;;10.17;3.30;;;12.30;99.90;;;;;;4973446;28;20197;-73
2022/10/02 06:43:39;;;;;;;11.33;2.90;;;12.20;99.90;;;;;;5011192;28;20565;-74
2022/10/02 06:46:36;;;;;;;7.63;2.80;;;12.30;99.90;;;;;;4988579;28;20217;-75
2022/10/02 06:49:34;;;;;;;8.80;3.20;;;12.40;99.90;;;;;;4992643;28;20194;-74
2022/10/02 06:52:14;;;;;;;8.67;2.83;;;12.50;99.90;;;;;;4994781;28;20244;-74
2022/10/02 06:54:46;;;;;;;11.63;3.23;;;12.60;99.90;;;;;;5003131;28;20177;-74
2022/10/02 06:57:33;;;;;;;8.57;3.00;;;12.70;99.90;;;;;;4990215;28;20903;-73
2022/10/02 07:00:10;;;;;;;8.63;2.47;;;13.10;99.90;;;;;;4996253;28;20213;-74
2022/10/02 07:02:58;;;;;;;7.90;2.25;;;13.80;99.90;;;;;;5006576;28;20211;-73
2022/10/02 07:05:36;;;;;;;9.00;2.15;;;14.20;99.90;;;;;;5004888;28;20213;-74
2022/10/02 07:08:05;;;;;;;7.15;2.53;;;15.10;99.90;;;;;;4986185;28;20236;-75
2022/10/02 07:10:36;;;;;;;6.95;2.22;;;15.80;99.90;;;;;;5008978;28;20270;-73
2022/10/02 07:13:16;;;;;;;5.80;2.17;;;15.60;99.90;;;;;;4978368;28;20185;-73
2022/10/02 07:16:19;;;;;;;9.07;3.03;;;15.60;99.90;;;;;;5005210;28;20544;-74
2022/10/02 07:18:53;;;;;;;10.70;2.75;;;15.00;99.90;;;;;;4995592;28;20213;-73
2022/10/02 07:21:54;;;;;;;5.50;1.95;;;15.30;99.90;;;;;;5001457;28;20289;-73
2022/10/02 07:24:57;;;;;;;10.20;2.42;;;15.30;99.90;;;;;;5007295;28;20200;-74
2022/10/02 07:27:31;;;;;;;7.47;2.20;;;15.80;99.90;;;;;;5008862;28;20227;-74
2022/10/02 07:30:11;;;;;;;10.45;3.00;;;16.20;99.90;;;;;;5003826;28;20243;-74
2022/10/02 07:33:23;;;;;;;10.88;2.67;;;16.60;99.90;;;;;;4976825;28;20224;-73
2022/10/02 07:36:02;;;;;;;8.32;2.53;;;17.10;99.90;;;;;;4995188;28;20691;-74
2022/10/02 07:39:18;;;;;;;8.13;2.33;;;16.90;99.90;;;;;;5005196;28;20721;-74
2022/10/02 07:41:53;;;;;;;10.30;2.10;;;17.10;99.90;;;;;;4943902;28;20243;-73
2022/10/02 07:45:01;;;;;;;6.10;2.30;;;16.70;99.90;;;;;;5002877;28;20205;-73
2022/10/02 07:47:46;;;;;;;10.45;2.83;;;16.60;99.90;;;;;;4945126;28;20213;-73
2022/10/02 07:50:34;;;;;;;11.13;3.20;;;16.40;99.90;;;;;;5001630;28;20204;-74
2022/10/02 07:53:17;;;;;;;8.65;3.60;;;16.30;99.90;;;;;;5005096;28;20396;-76
2022/10/02 07:55:51;;;;;;;8.63;2.90;;;16.20;99.90;;;;;;5006699;28;20808;-74
2022/10/02 07:58:48;;;;;;;11.35;3.55;;;15.90;99.90;;;;;;4990171;28;20208;-75
2022/10/02 08:01:35;;;;;;;8.57;3.50;;;15.70;99.90;;;;;;5000870;28;20216;-73
2022/10/02 08:04:08;;;;;;;10.30;3.72;;;15.10;99.90;;;;;;4986214;28;20177;-74
2022/10/02 08:06:35;;;;;;;10.73;3.88;;;15.20;99.90;;;;;;5008477;28;20176;-74
2022/10/02 08:09:26;;;;;;;10.80;3.40;;;15.30;99.90;;;;;;4990313;28;20271;-74
2022/10/02 08:11:58;;;;;;;7.97;3.30;;;15.40;99.90;;;;;;5005877;28;20287;-73
2022/10/02 08:14:38;;;;;;;12.15;3.40;;;15.70;99.90;;;;;;5011117;28;20226;-75
2022/10/02 08:17:29;;;;;;;10.98;3.67;;;15.40;99.90;;;;;;5009317;28;20292;-73
2022/10/02 08:20:01;;;;;;;9.02;3.92;;;15.40;99.90;;;;;;5004547;28;20601;-74
2022/10/02 08:22:43;;;;;;;6.53;3.53;;;15.70;99.90;;;;;;5004958;28;20216;-74
2022/10/02 08:25:39;;;;;;;11.50;4.28;;;15.60;99.90;;;;;;5007995;28;20189;-74
2022/10/02 08:28:16;;;;;;;12.68;3.45;;;15.50;99.90;;;;;;4986651;28;20249;-74
2022/10/02 08:30:42;;;;;;;7.63;3.13;;;15.70;99.90;;;;;;5001021;28;20172;-73
2022/10/02 08:33:14;;;;;;;7.93;3.50;;;15.50;99.90;;;;;;4983060;28;20244;-72
2022/10/02 08:36:10;;;;;;;9.00;3.75;;;15.50;99.90;;;;;;5008206;28;20287;-73
2022/10/02 08:39:07;;;;;;;11.43;4.10;;;15.40;99.90;;;;;;4999973;28;20213;-73
2022/10/02 08:42:00;;;;;;;11.20;4.32;;;15.50;99.90;;;;;;4959736;28;20299;-73
2022/10/02 08:44:35;;;;;;;8.93;4.45;;;15.40;99.90;;;;;;5000964;28;20205;-74
2022/10/02 08:47:03;;;;;;;7.90;3.63;;;15.50;99.90;;;;;;4985008;28;20312;-74
2022/10/02 08:49:46;;;;;;;15.70;4.65;;;15.70;99.90;;;;;;5001730;28;20339;-72
2022/10/02 08:52:23;;;;;;;13.23;4.30;;;15.90;99.90;;;;;;5003323;28;20185;-74
2022/10/02 08:55:04;;;;;;;16.00;4.38;;;15.90;99.90;;;;;;5004771;28;20218;-74
2022/10/02 08:58:09;;;;;;;10.48;3.92;;;16.10;99.90;;;;;;4999330;28;20208;-73
2022/10/02 09:00:56;;;;;;;12.02;4.78;;;16.30;99.90;;;;;;4989488;28;20232;-75
2022/10/02 09:03:59;;;;;;;12.60;4.28;;;16.00;99.90;;;;;;4975362;28;20224;-74
2022/10/02 09:07:11;;;;;;;11.98;4.25;;;15.90;99.90;;;;;;4971898;28;20200;-74
2022/10/02 09:09:45;;;;;;;13.73;4.45;;;16.00;99.90;;;;;;4987997;28;20213;-75
2022/10/02 09:12:36;;;;;;;9.13;4.15;;;15.90;99.90;;;;;;4985803;28;20316;-74
2022/10/02 09:15:22;;;;;;;12.73;3.80;;;15.90;99.90;;;;;;4982187;28;20225;-74
2022/10/02 09:18:14;;;;;;;12.13;4.30;;;15.90;99.90;;;;;;5001125;28;20642;-75
2022/10/02 09:21:17;;;;;;;13.93;4.38;;;15.80;99.90;;;;;;5003469;28;20307;-74
2022/10/02 09:24:05;;;;;;;12.65;4.53;;;15.80;99.90;;;;;;5004261;28;20312;-74
2022/10/02 09:27:02;;;;;;;9.02;4.35;;;15.80;99.90;;;;;;5007988;28;20327;-74
2022/10/02 09:29:48;;;;;;;10.77;4.82;;;15.70;99.90;;;;;;5007231;28;20204;-74
2022/10/02 09:32:59;;;;;;;13.43;4.40;;;15.60;99.90;;;;;;4988050;28;20288;-74
2022/10/02 09:35:49;;;;;;;12.35;4.45;;;15.70;99.90;;;;;;4968594;28;20366;-74
2022/10/02 09:38:50;;;;;;;8.02;3.95;;;15.60;99.90;;;;;;5007801;28;20209;-75
2022/10/02 09:41:23;;;;;;;12.20;4.75;;;15.60;99.90;;;;;;4970440;28;20216;-74
2022/10/02 09:44:18;;;;;;;15.07;4.13;;;15.90;99.90;;;;;;5004622;28;20244;-74
2022/10/02 09:46:59;;;;;;;18.58;4.38;;;16.00;99.90;;;;;;5004207;28;20217;-74
2022/10/02 09:49:59;;;;;;;10.95;4.25;;;16.50;99.90;;;;;;5000907;28;20208;-74
2022/10/02 09:52:44;;;;;;;13.70;5.43;;;17.00;99.90;;;;;;4986175;28;20220;-72
2022/10/02 09:55:48;;;;;;;10.18;4.22;;;17.50;99.90;;;;;;5005955;28;20182;-73
2022/10/02 09:58:35;;;;;;;12.95;3.92;;;17.40;99.90;;;;;;5004544;28;20200;-73
2022/10/02 10:01:36;;;;;;;12.88;3.78;;;17.00;99.90;;;;;;4990580;28;20252;-74
2022/10/02 10:04:12;;;;;;;12.75;3.63;;;16.80;99.90;;;;;;5005434;28;20212;-74
2022/10/02 10:07:01;;;;;;;13.52;3.78;;;16.60;99.90;;;;;;5004620;28;20223;-74
2022/10/02 10:10:18;;;;;;;12.55;3.97;;;16.30;99.90;;;;;;5008659;28;20852;-73
2022/10/02 10:13:01;;;;;;;10.38;3.42;;;16.10;99.90;;;;;;4923780;28;20648;-74
2022/10/02 10:15:45;;;;;;;8.10;3.47;;;15.80;99.90;;;;;;4984998;28;20213;-73
2022/10/02 10:18:41;;;;;;;13.57;3.67;;;15.60;99.90;;;;;;5003952;28;20585;-73
2022/10/02 10:21:19;;;;;;;7.43;2.90;;;15.30;99.90;;;;;;4974456;28;20214;-74
2022/10/02 10:24:06;;;;;;;7.47;2.85;;;15.30;99.90;;;;;;5003234;28;20205;-74
2022/10/02 10:27:00;;;;;;;9.45;3.40;;;15.20;99.90;;;;;;4989380;28;20626;-73
2022/10/02 10:29:55;;;;;;;10.55;3.85;;;15.30;99.90;;;;;;4987910;28;20209;-73
2022/10/02 10:32:34;;;;;;;11.23;3.13;;;15.30;99.90;;;;;;5003818;28;20251;-73
2022/10/02 10:35:15;;;;;;;8.48;3.30;;;15.40;99.90;;;;;;5007518;28;20208;-74
2022/10/02 10:38:33;;;;;;;6.45;2.83;;;15.90;99.90;;;;;;5002651;28;20606;-73
2022/10/02 10:41:33;;;;;;;5.63;2.53;;;16.20;99.90;;;;;;4999616;28;20225;-73
2022/10/02 10:44:01;;;;;;;6.15;2.13;;;16.00;99.90;;;;;;5005841;28;20327;-74
2022/10/02 10:46:52;;;;;;;5.97;2.10;;;15.70;99.90;;;;;;5008226;28;20232;-73
2022/10/02 10:50:05;;;;;;;6.10;2.20;;;15.50;99.90;;;;;;4968864;28;20221;-72
2022/10/02 10:52:53;;;;;;;8.27;2.55;;;15.20;99.90;;;;;;4908104;29;20220;-73
2022/10/02 10:55:44;;;;;;;6.00;2.58;;;14.90;99.90;;;;;;4997890;28;20634;-74
2022/10/02 10:58:33;;;;;;;10.48;3.47;;;15.00;99.90;;;;;;5002837;28;20684;-73
2022/10/02 11:01:22;;;;;;;7.43;3.50;;;15.20;99.90;;;;;;5004387;28;20205;-74
2022/10/02 11:03:54;;;;;;;9.50;4.10;;;15.40;99.90;;;;;;5002090;28;20551;-74
2022/10/02 11:06:31;;;;;;;7.53;3.53;;;15.60;99.90;;;;;;5003290;28;20247;-74
2022/10/02 11:09:18;;;;;;;7.20;3.30;;;15.70;99.90;;;;;;5003979;28;20707;-73
2022/10/02 11:11:54;;;;;;;8.18;3.38;;;16.00;99.90;;;;;;5002637;28;20220;-75
2022/10/02 11:14:42;;;;;;;6.78;3.47;;;16.10;99.90;;;;;;5003475;28;20205;-73
2022/10/02 11:17:49;;;;;;;8.95;3.58;;;16.40;99.90;;;;;;5005209;28;20217;-74
2022/10/02 11:20:43;;;;;;;7.50;4.00;;;16.30;99.90;;;;;;4981791;23;20235;-73
2022/10/02 11:23:26;;;;;;;9.68;3.53;;;16.00;99.90;;;;;;5034140;28;20308;-74
2022/10/02 11:26:20;;;;;;;14.23;5.05;;;16.00;99.90;;;;;;5038449;28;20253;-73
2022/10/02 11:29:13;;;;;;;8.02;3.58;;;15.80;99.90;;;;;;5030249;28;20235;-74
2022/10/02 11:31:58;;;;;;;8.15;3.00;;;15.40;99.90;;;;;;5008039;28;20236;-73
2022/10/02 11:35:02;;;;;;;7.05;3.42;;;14.80;99.90;;;;;;5002351;28;20215;-73
2022/10/02 11:38:08;;;;;;;11.98;3.80;;;14.70;99.90;;;;;;5012123;28;20702;-72
2022/10/02 11:40:39;;;;;;;5.03;3.00;;;14.80;99.90;;;;;;4963691;28;20518;-71
2022/10/02 11:43:28;;;;;;;10.63;4.38;;;14.90;99.90;;;;;;4996624;28;20198;-75
2022/10/02 11:46:35;;;;;;;10.48;3.95;;;15.20;99.90;;;;;;4948465;28;20197;-72
2022/10/02 11:49:25;;;;;;;7.90;3.85;;;15.40;99.90;;;;;;5005077;28;20213;-72
2022/10/02 11:52:22;;;;;;;8.75;3.92;;;15.50;99.90;;;;;;4996678;28;20201;-72
2022/10/02 11:54:53;;;;;;;9.27;3.78;;;15.60;99.90;;;;;;5001426;28;20637;-72
2022/10/02 11:57:33;;;;;;;9.60;3.60;;;15.80;99.90;;;;;;4996135;28;20205;-71
2022/10/02 12:00:41;;;;;;;12.02;5.68;;;15.90;99.90;;;;;;5013977;28;20300;-72
2022/10/02 12:03:35;;;;;;;10.93;4.90;;;16.10;99.90;;;;;;4994093;28;20730;-73
2022/10/02 12:06:12;;;;;;;9.43;3.67;;;16.10;99.90;;;;;;5015189;28;20205;-71
2022/10/02 12:09:12;;;;;;;9.98;4.40;;;16.20;99.90;;;;;;5002419;28;20319;-72
2022/10/02 12:12:21;;;;;;;11.80;4.18;;;16.30;99.90;;;;;;5011993;28;20216;-72
2022/10/02 12:15:08;;;;;;;9.13;4.00;;;16.40;99.90;;;;;;4986913;28;20478;-72
2022/10/02 12:17:52;;;;;;;6.90;3.33;;;16.40;99.90;;;;;;5006780;28;20216;-71
2022/10/02 12:27:11;;;;;;;5.82;2.97;;;16.30;99.90;;;;;;5003055;28;20215;-71
2022/10/02 12:30:05;;;;;;;7.35;2.60;;;16.40;99.90;;;;;;4945512;28;20303;-72
2022/10/02 12:32:37;;;;;;;6.53;2.28;;;16.30;99.90;;;;;;5008211;28;20207;-72
2022/10/02 12:35:25;;;;;;;5.55;2.53;;;16.10;99.90;;;;;;4997352;28;20205;-72
2022/10/02 12:38:21;;;;;;;6.32;2.75;;;16.10;99.90;;;;;;4992342;28;20205;-71
2022/10/02 12:41:20;;;;;;;6.78;2.83;;;16.10;99.90;;;;;;5008240;28;20225;-72
2022/10/02 12:44:09;;;;;;;6.05;2.40;;;16.00;99.90;;;;;;5006763;28;20213;-73
2022/10/02 12:46:58;;;;;;;8.18;2.80;;;15.90;99.90;;;;;;5005707;28;20209;-71
2022/10/02 12:49:33;;;;;;;6.97;2.33;;;16.10;99.90;;;;;;5005630;28;20570;-70
2022/10/02 12:52:37;;;;;;;6.97;3.00;;;16.00;99.90;;;;;;5000200;28;20196;-71
2022/10/02 12:55:40;;;;;;;9.43;2.50;;;16.10;99.90;;;;;;5002557;28;20181;-71
2022/10/02 12:58:31;;;;;;;7.15;2.33;;;16.20;99.90;;;;;;5006022;28;20648;-73
2022/10/02 13:01:13;;;;;;;6.63;2.38;;;16.30;99.90;;;;;;5018251;28;20204;-73
2022/10/02 13:04:15;;;;;;;6.40;2.10;;;16.30;99.90;;;;;;4996252;28;20169;-72
2022/10/02 13:06:54;;;;;;;6.63;2.50;;;16.30;99.90;;;;;;4997600;28;20215;-72
2022/10/02 13:09:32;;;;;;;7.13;2.00;;;16.40;99.90;;;;;;5011123;28;20340;-73
2022/10/02 13:12:31;;;;;;;4.97;2.22;;;16.70;99.90;;;;;;5009068;28;20206;-72
2022/10/02 13:15:23;;;;;;;5.90;2.85;;;16.90;99.90;;;;;;5000568;28;20209;-73
2022/10/02 13:17:56;;;;;;;6.38;2.53;;;17.10;99.90;;;;;;5020229;28;20568;-73
2022/10/02 13:20:38;;;;;;;7.15;1.95;;;17.10;99.90;;;;;;5014717;28;20216;-73
2022/10/02 13:23:22;;;;;;;8.70;2.40;;;17.10;99.90;;;;;;5004005;28;20559;-73
2022/10/02 13:26:10;;;;;;;3.58;1.67;;;16.90;99.90;;;;;;4998517;28;20220;-72
2022/10/02 13:29:01;;;;;;;7.35;2.05;;;16.70;99.90;;;;;;5013013;28;20296;-73
2022/10/02 13:31:45;;;;;;;4.90;1.88;;;16.60;99.90;;;;;;5004478;28;20611;-73
2022/10/02 13:34:19;;;;;;;6.97;2.20;;;16.50;99.90;;;;;;5010803;28;20182;-73
2022/10/02 13:37:03;;;;;;;7.70;2.63;;;16.50;99.90;;;;;;5009460;28;20188;-71
2022/10/02 13:40:06;;;;;;;3.90;1.67;;;16.40;99.90;;;;;;5001344;28;20209;-72
2022/10/02 13:43:10;;;;;;;5.68;2.17;;;16.30;99.90;;;;;;5016940;28;20667;-71
2022/10/02 13:45:51;;;;;;;5.90;1.92;;;16.20;99.90;;;;;;5012699;28;20216;-73
2022/10/02 13:48:44;;;;;;;7.10;3.08;;;16.10;99.90;;;;;;5007563;28;20286;-74
2022/10/02 13:51:20;;;;;;;8.25;2.30;;;16.10;99.90;;;;;;5002237;28;20213;-73
2022/10/02 13:54:15;;;;;;;8.90;2.20;;;16.10;99.90;;;;;;4994828;28;20205;-73
2022/10/02 13:57:00;;;;;;;5.80;2.20;;;16.20;99.90;;;;;;5004910;28;20211;-73
2022/10/02 14:00:03;;;;;;;7.55;1.92;;;16.30;99.90;;;;;;5006302;28;20208;-73
2022/10/02 14:02:56;;;;;;;5.95;1.67;;;16.30;99.90;;;;;;5018213;28;20201;-73
2022/10/02 14:05:28;;;;;;;4.65;2.33;;;16.30;99.90;;;;;;5003282;28;20200;-73
2022/10/02 14:08:14;;;;;;;7.85;1.98;;;16.30;99.90;;;;;;5007835;28;20275;-71
2022/10/02 14:11:08;;;;;;;8.15;2.42;;;16.30;99.90;;;;;;5010064;28;20315;-73
2022/10/02 14:14:03;;;;;;;4.18;1.40;;;16.20;99.90;;;;;;4992184;28;20206;-72
2022/10/02 14:17:11;;;;;;;7.82;1.52;;;16.20;99.90;;;;;;5012987;28;20216;-73